createdAt,value
2024-01-25T00:01:56.008Z,3.33
2024-01-25T00:04:23.398Z,2.90
2024-01-25T00:06:50.671Z,5.13
2024-01-25T00:09:18.706Z,4.70
2024-01-25T00:11:45.753Z,4.87
2024-01-25T00:14:12.914Z,4.63
2024-01-25T00:16:43.310Z,4.10
2024-01-25T00:19:10.628Z,4.27
2024-01-25T00:21:43.052Z,4.47
2024-01-25T00:24:10.193Z,5.40
2024-01-25T00:26:37.322Z,5.37
2024-01-25T00:29:04.588Z,5.37
2024-01-25T00:31:31.761Z,6.00
2024-01-25T00:33:59.350Z,6.70
2024-01-25T00:36:26.964Z,6.83
2024-01-25T00:38:54.608Z,6.27
2024-01-25T00:41:21.848Z,7.37
2024-01-25T00:43:49.052Z,8.33
2024-01-25T00:46:16.538Z,8.57
2024-01-25T00:48:46.969Z,7.80
2024-01-25T00:51:16.682Z,5.87
2024-01-25T00:53:43.955Z,6.60
2024-01-25T00:56:11.455Z,7.30
2024-01-25T00:58:38.651Z,9.27
2024-01-25T01:01:06.029Z,9.60
2024-01-25T01:03:33.510Z,8.20
2024-01-25T01:06:01.104Z,7.67
2024-01-25T01:08:28.348Z,12.23
2024-01-25T01:10:55.413Z,9.80
2024-01-25T01:13:22.519Z,9.63
2024-01-25T01:15:49.755Z,8.53
2024-01-25T01:18:17.007Z,7.80
2024-01-25T01:20:44.160Z,6.17
2024-01-25T01:23:11.664Z,4.87
2024-01-25T01:25:38.774Z,4.23
2024-01-25T01:28:06.028Z,4.40
2024-01-25T01:30:33.167Z,3.60
2024-01-25T01:33:00.373Z,3.83
2024-01-25T01:35:27.597Z,3.20
2024-01-25T01:37:54.839Z,3.53
2024-01-25T01:40:21.956Z,3.40
2024-01-25T01:42:49.157Z,3.10
2024-01-25T01:45:16.314Z,2.87
2024-01-25T01:47:43.904Z,2.60
2024-01-25T01:50:12.060Z,2.87
2024-01-25T01:52:39.341Z,2.57
2024-01-25T01:55:06.798Z,2.50
2024-01-25T01:57:34.021Z,2.63
2024-01-25T02:00:01.271Z,3.40
2024-01-25T02:02:28.386Z,2.97
2024-01-25T02:04:55.513Z,2.50
2024-01-25T02:07:22.779Z,3.00
2024-01-25T02:09:49.942Z,2.80
2024-01-25T02:12:20.838Z,2.90
2024-01-25T02:14:47.954Z,2.83
2024-01-25T02:17:15.134Z,2.77
2024-01-25T02:19:42.308Z,2.73
2024-01-25T02:22:09.505Z,2.37
2024-01-25T02:24:36.855Z,2.50
2024-01-25T02:27:06.168Z,3.30
2024-01-25T02:29:33.402Z,2.70
2024-01-25T02:32:01.515Z,2.27
2024-01-25T02:34:28.663Z,2.63
2024-01-25T02:36:56.009Z,2.97
2024-01-25T02:39:23.071Z,3.27
2024-01-25T02:41:50.122Z,2.70
2024-01-25T02:44:17.182Z,2.37
2024-01-25T02:46:45.869Z,2.07
2024-01-25T02:49:13.141Z,2.63
2024-01-25T02:51:40.444Z,2.40
2024-01-25T02:54:07.570Z,2.30
2024-01-25T02:56:36.411Z,2.50
2024-01-25T02:59:03.620Z,2.67
2024-01-25T03:01:38.632Z,2.70
2024-01-25T03:04:06.009Z,2.80
2024-01-25T03:06:33.381Z,2.67
2024-01-25T03:09:00.612Z,3.33
2024-01-25T03:11:27.737Z,2.80
2024-01-25T03:13:54.793Z,3.00
2024-01-25T03:16:22.063Z,2.97
2024-01-25T03:18:49.258Z,2.73
2024-01-25T03:21:16.777Z,2.40
2024-01-25T03:23:43.908Z,2.43
2024-01-25T03:26:10.990Z,2.37
2024-01-25T03:28:39.732Z,2.43
2024-01-25T03:31:06.878Z,2.73
2024-01-25T03:33:34.200Z,3.03
2024-01-25T03:36:04.898Z,2.93
2024-01-25T03:38:32.151Z,3.20
2024-01-25T03:40:59.833Z,3.00
2024-01-25T03:43:29.853Z,3.00
2024-01-25T03:46:00.855Z,3.00
2024-01-25T03:48:28.002Z,2.33
2024-01-25T03:50:57.420Z,2.60
2024-01-25T03:53:24.724Z,2.57
2024-01-25T03:55:51.835Z,2.50
2024-01-25T03:58:22.298Z,2.93
2024-01-25T04:00:49.524Z,3.20
2024-01-25T04:03:16.997Z,3.03
2024-01-25T04:05:44.220Z,2.80
2024-01-25T04:08:11.394Z,2.73
2024-01-25T04:10:38.506Z,2.63
2024-01-25T04:13:07.604Z,3.20
2024-01-25T04:15:34.810Z,3.07
2024-01-25T04:18:02.072Z,2.53
2024-01-25T04:20:29.543Z,2.73
2024-01-25T04:22:56.813Z,2.47
2024-01-25T04:25:24.104Z,2.40
2024-01-25T04:27:51.259Z,2.90
2024-01-25T04:30:18.417Z,2.60
2024-01-25T04:32:45.609Z,2.20
2024-01-25T04:35:12.800Z,2.43
2024-01-25T04:37:40.028Z,2.10
2024-01-25T04:40:07.456Z,2.47
2024-01-25T04:42:34.577Z,2.47
2024-01-25T04:45:01.719Z,2.30
2024-01-25T04:47:29.056Z,2.30
2024-01-25T04:49:56.372Z,2.77
2024-01-25T04:52:23.545Z,2.70
2024-01-25T04:54:50.649Z,2.53
2024-01-25T04:57:17.789Z,2.50
2024-01-25T04:59:44.868Z,2.60
2024-01-25T05:02:12.133Z,2.97
2024-01-25T05:04:39.733Z,2.57
2024-01-25T05:07:07.654Z,2.63
2024-01-25T05:09:34.783Z,2.43
2024-01-25T05:12:03.168Z,2.30
2024-01-25T05:14:30.361Z,3.17
2024-01-25T05:16:57.479Z,2.97
2024-01-25T05:19:26.492Z,2.60
2024-01-25T05:21:53.709Z,2.93
2024-01-25T05:24:20.823Z,2.77
2024-01-25T05:26:47.896Z,2.37
2024-01-25T05:29:15.181Z,2.10
2024-01-25T05:31:42.378Z,2.23
2024-01-25T05:34:09.704Z,1.80
2024-01-25T05:36:36.964Z,1.80
2024-01-25T05:39:07.581Z,1.70
2024-01-25T05:41:34.891Z,1.87
2024-01-25T05:44:02.044Z,1.60
2024-01-25T05:46:29.472Z,1.77
2024-01-25T05:48:56.910Z,1.57
2024-01-25T05:51:24.287Z,1.40
2024-01-25T05:53:51.362Z,1.33
2024-01-25T05:56:18.472Z,1.30
2024-01-25T05:58:45.573Z,1.43
2024-01-25T06:01:12.887Z,1.93
2024-01-25T06:03:40.183Z,1.93
2024-01-25T06:06:09.134Z,1.50
2024-01-25T06:08:36.948Z,1.50
2024-01-25T06:11:04.289Z,1.47
2024-01-25T06:13:31.518Z,1.83
2024-01-25T06:15:58.682Z,2.00
2024-01-25T06:18:25.808Z,1.60
2024-01-25T06:20:52.961Z,2.00
2024-01-25T06:23:20.051Z,1.70
2024-01-25T06:25:47.146Z,1.83
2024-01-25T06:28:14.411Z,1.60
2024-01-25T06:30:41.548Z,2.00
2024-01-25T06:33:08.951Z,1.87
2024-01-25T06:35:36.302Z,1.77
2024-01-25T06:38:03.426Z,1.60
2024-01-25T06:40:30.551Z,1.80
2024-01-25T06:42:57.775Z,1.90
2024-01-25T06:45:24.878Z,2.27
2024-01-25T06:47:52.051Z,2.00
2024-01-25T06:50:19.305Z,2.10
2024-01-25T06:52:46.477Z,1.90
2024-01-25T06:55:13.912Z,1.77
2024-01-25T06:57:41.153Z,1.97
2024-01-25T07:00:09.269Z,1.80
2024-01-25T07:02:37.029Z,2.00
2024-01-25T07:05:04.878Z,1.97
2024-01-25T07:07:33.972Z,1.97
2024-01-25T07:10:01.217Z,1.90
2024-01-25T07:12:28.955Z,1.90
2024-01-25T07:14:56.052Z,2.40
2024-01-25T07:17:23.199Z,2.47
2024-01-25T07:19:50.366Z,2.23
2024-01-25T07:22:19.789Z,2.00
2024-01-25T07:24:46.977Z,2.50
2024-01-25T07:27:14.067Z,2.90
2024-01-25T07:29:41.167Z,2.23
2024-01-25T07:32:08.576Z,1.80
2024-01-25T07:34:35.873Z,2.30
2024-01-25T07:37:03.126Z,2.00
2024-01-25T07:39:30.233Z,2.20
2024-01-25T07:41:57.336Z,2.00
2024-01-25T07:44:24.425Z,1.97
2024-01-25T07:46:51.513Z,1.60
2024-01-25T07:49:18.785Z,1.97
2024-01-25T07:51:46.117Z,1.97
2024-01-25T07:54:13.670Z,1.80
2024-01-25T07:56:40.839Z,1.37
2024-01-25T07:59:08.234Z,1.70
2024-01-25T08:01:35.430Z,1.83
2024-01-25T08:04:04.436Z,1.70
2024-01-25T08:06:31.779Z,2.10
2024-01-25T08:08:59.430Z,2.03
2024-01-25T08:11:26.785Z,1.60
2024-01-25T08:13:53.933Z,1.50
2024-01-25T08:16:21.562Z,1.73
2024-01-25T08:18:49.341Z,1.67
2024-01-25T08:21:17.240Z,1.50
2024-01-25T08:23:44.372Z,1.70
2024-01-25T08:26:13.504Z,1.70
2024-01-25T08:28:46.202Z,1.53
2024-01-25T08:31:13.399Z,1.90
2024-01-25T08:33:46.285Z,1.60
2024-01-25T08:36:20.925Z,1.70
2024-01-25T08:38:48.584Z,1.40
2024-01-25T08:41:16.690Z,1.90
2024-01-25T08:43:43.965Z,1.53
2024-01-25T08:46:11.138Z,1.70
2024-01-25T08:48:38.461Z,1.80
2024-01-25T08:51:05.894Z,1.50
2024-01-25T08:53:33.061Z,1.73
2024-01-25T08:56:01.067Z,1.77
2024-01-25T08:58:29.952Z,1.70
2024-01-25T09:00:57.210Z,1.80
2024-01-25T09:03:24.562Z,2.00
2024-01-25T09:05:51.867Z,1.90
2024-01-25T09:08:19.292Z,2.47
2024-01-25T09:10:46.636Z,1.80
2024-01-25T09:13:14.259Z,2.00
2024-01-25T09:15:41.424Z,2.20
2024-01-25T09:18:08.630Z,1.93
2024-01-25T09:20:35.862Z,2.30
2024-01-25T09:23:02.978Z,2.10
2024-01-25T09:25:30.213Z,1.90
2024-01-25T09:27:58.309Z,2.03
2024-01-25T09:30:25.702Z,2.00
2024-01-25T09:32:52.805Z,2.17
2024-01-25T09:35:20.238Z,1.73
2024-01-25T09:37:47.562Z,2.00
2024-01-25T09:40:14.820Z,1.80
2024-01-25T09:42:41.971Z,2.10
2024-01-25T09:45:09.385Z,2.13
2024-01-25T09:47:36.649Z,1.90
2024-01-25T09:50:05.544Z,1.90
2024-01-25T09:52:32.776Z,1.90
2024-01-25T09:55:00.070Z,1.87
2024-01-25T09:57:27.971Z,1.40
2024-01-25T09:59:58.240Z,1.60
2024-01-25T10:02:25.698Z,2.10
2024-01-25T10:04:53.404Z,1.63
2024-01-25T10:07:39.862Z,2.03
2024-01-25T10:10:07.756Z,1.93
2024-01-25T10:12:34.995Z,1.93
2024-01-25T10:15:02.266Z,1.83
2024-01-25T10:17:52.198Z,1.80
2024-01-25T10:20:22.294Z,1.70
2024-01-25T10:22:49.861Z,1.67
2024-01-25T10:25:17.393Z,1.77
2024-01-25T10:27:44.741Z,1.70
2024-01-25T10:30:12.669Z,1.90
2024-01-25T10:32:39.851Z,1.80
2024-01-25T10:35:08.515Z,1.70
2024-01-25T10:37:35.842Z,1.90
2024-01-25T10:40:03.422Z,1.60
2024-01-25T10:42:30.545Z,2.00
2024-01-25T10:44:57.684Z,1.60
2024-01-25T10:47:24.803Z,1.63
2024-01-25T10:49:52.068Z,1.63
2024-01-25T10:52:20.687Z,1.73
2024-01-25T10:54:47.831Z,1.33
2024-01-25T10:57:14.984Z,1.60
2024-01-25T10:59:42.214Z,1.60
2024-01-25T11:02:10.189Z,1.33
2024-01-25T11:04:37.604Z,1.60
2024-01-25T11:07:09.089Z,1.27
2024-01-25T11:09:37.410Z,1.80
2024-01-25T11:12:10.943Z,1.73
2024-01-25T11:14:38.655Z,1.47
2024-01-25T11:17:21.761Z,1.53
2024-01-25T11:19:51.234Z,1.80
2024-01-25T11:22:19.268Z,1.53
2024-01-25T11:24:46.858Z,1.50
2024-01-25T11:27:14.101Z,1.60
2024-01-25T11:29:43.921Z,1.60
2024-01-25T11:32:11.489Z,1.67
2024-01-25T11:34:38.707Z,1.60
2024-01-25T11:37:05.942Z,1.60
2024-01-25T11:39:33.784Z,1.30
2024-01-25T11:42:00.870Z,1.60
2024-01-25T11:44:27.981Z,1.50
2024-01-25T11:46:58.183Z,1.40
2024-01-25T11:49:26.324Z,1.27
2024-01-25T11:51:53.576Z,1.60
2024-01-25T11:54:20.749Z,1.37
2024-01-25T11:56:47.995Z,1.27
2024-01-25T11:59:15.133Z,1.50
2024-01-25T12:01:42.671Z,1.23
2024-01-25T12:04:10.623Z,1.37
2024-01-25T12:06:38.311Z,1.60
2024-01-25T12:09:12.004Z,1.63
2024-01-25T12:11:40.040Z,1.60
2024-01-25T12:14:07.280Z,1.50
2024-01-25T12:16:36.961Z,1.37
2024-01-25T12:19:05.681Z,1.30
2024-01-25T12:21:35.187Z,1.60
2024-01-25T12:24:02.320Z,1.43
2024-01-25T12:26:29.647Z,1.30
2024-01-25T12:28:57.336Z,1.47
2024-01-25T12:31:24.454Z,1.37
2024-01-25T12:33:51.722Z,1.80
2024-01-25T12:36:19.342Z,1.50
2024-01-25T12:38:46.530Z,1.57
2024-01-25T12:41:14.066Z,1.53
2024-01-25T12:43:41.269Z,1.43
2024-01-25T12:46:17.818Z,1.20
2024-01-25T12:48:56.268Z,1.57
2024-01-25T12:51:23.571Z,1.20
2024-01-25T12:53:51.004Z,1.40
2024-01-25T12:56:18.216Z,1.33
2024-01-25T12:58:45.381Z,1.13
2024-01-25T13:01:12.702Z,1.30
2024-01-25T13:03:41.891Z,1.30
2024-01-25T13:06:09.075Z,1.50
2024-01-25T13:08:36.449Z,1.40
2024-01-25T13:11:03.502Z,1.60
2024-01-25T13:13:30.642Z,1.40
2024-01-25T13:15:58.913Z,1.93
2024-01-25T13:18:27.234Z,1.50
2024-01-25T13:20:54.316Z,1.60
2024-01-25T13:23:21.389Z,1.60
2024-01-25T13:25:48.434Z,1.53
2024-01-25T13:28:15.497Z,1.57
2024-01-25T13:30:42.623Z,1.30
2024-01-25T13:33:09.893Z,1.63
2024-01-25T13:35:37.036Z,1.57
2024-01-25T13:38:04.245Z,1.90
2024-01-25T13:40:31.313Z,1.53
2024-01-25T13:42:58.464Z,1.63
2024-01-25T13:45:25.597Z,1.30
2024-01-25T13:47:52.775Z,1.20
2024-01-25T13:50:19.929Z,1.47
2024-01-25T13:52:47.040Z,1.37
2024-01-25T13:55:14.133Z,1.40
2024-01-25T13:57:41.189Z,1.40
2024-01-25T14:00:09.124Z,1.20
2024-01-25T14:02:36.388Z,1.20
2024-01-25T14:05:03.566Z,1.50
2024-01-25T14:07:31.110Z,0.90
2024-01-25T14:09:58.326Z,1.17
2024-01-25T14:12:25.537Z,1.17
2024-01-25T14:14:52.713Z,0.93
2024-01-25T14:17:20.406Z,1.20
2024-01-25T14:19:47.842Z,1.10
2024-01-25T14:22:22.754Z,1.17
2024-01-25T14:24:57.004Z,0.83
2024-01-25T14:27:24.728Z,1.07
2024-01-25T14:29:52.240Z,1.30
2024-01-25T14:32:22.818Z,1.20
2024-01-25T14:34:50.140Z,1.30
2024-01-25T14:37:17.625Z,1.30
2024-01-25T14:39:52.138Z,1.40
2024-01-25T14:42:30.148Z,1.20
2024-01-25T14:44:57.216Z,1.10
2024-01-25T14:47:24.417Z,1.00
2024-01-25T14:49:53.127Z,1.00
2024-01-25T14:52:20.405Z,0.90
2024-01-25T14:54:47.586Z,1.00
2024-01-25T14:57:14.830Z,1.20
2024-01-25T14:59:43.065Z,1.00
2024-01-25T15:02:10.182Z,0.90
2024-01-25T15:04:37.340Z,1.07
2024-01-25T15:07:04.560Z,1.00
2024-01-25T15:09:31.694Z,1.30
2024-01-25T15:11:58.767Z,1.07
2024-01-25T15:14:25.832Z,1.20
2024-01-25T15:16:52.954Z,1.10
2024-01-25T15:19:21.325Z,1.20
2024-01-25T15:21:48.593Z,1.00
2024-01-25T15:24:17.241Z,0.80
2024-01-25T15:26:44.686Z,1.00
2024-01-25T15:29:11.746Z,0.90
2024-01-25T15:31:38.816Z,1.03
2024-01-25T15:34:06.035Z,1.03
2024-01-25T15:36:33.306Z,0.93
2024-01-25T15:39:01.327Z,1.10
2024-01-25T15:41:30.085Z,0.73
2024-01-25T15:43:57.190Z,0.90
2024-01-25T15:46:24.269Z,1.00
2024-01-25T15:48:54.481Z,0.90
2024-01-25T15:51:22.812Z,0.90
2024-01-25T15:53:50.001Z,1.07
2024-01-25T15:56:17.133Z,0.77
2024-01-25T15:58:44.251Z,0.60
2024-01-25T16:01:11.416Z,0.90
2024-01-25T16:03:40.353Z,0.67
2024-01-25T16:06:07.679Z,0.70
2024-01-25T16:08:37.488Z,0.80
2024-01-25T16:11:05.762Z,0.60
2024-01-25T16:13:32.812Z,0.60
2024-01-25T16:16:00.422Z,0.70
2024-01-25T16:18:27.797Z,0.53
2024-01-25T16:20:56.127Z,0.70
2024-01-25T16:23:23.210Z,0.50
2024-01-25T16:25:50.254Z,0.70
2024-01-25T16:28:18.630Z,0.40
2024-01-25T16:30:45.816Z,0.60
2024-01-25T16:33:13.873Z,0.43
2024-01-25T16:35:41.127Z,0.40
2024-01-25T16:38:08.233Z,0.63
2024-01-25T16:40:35.274Z,0.50
2024-01-25T16:43:02.416Z,0.50
2024-01-25T16:45:29.672Z,0.40
2024-01-25T16:47:56.844Z,0.60
2024-01-25T16:50:24.196Z,0.50
2024-01-25T16:52:52.837Z,0.40
2024-01-25T16:55:19.881Z,0.53
2024-01-25T16:57:47.067Z,0.50
2024-01-25T17:00:17.157Z,0.50
2024-01-25T17:02:45.642Z,0.50
2024-01-25T17:05:12.944Z,0.60
2024-01-25T17:07:40.058Z,0.37
2024-01-25T17:10:07.403Z,0.50
2024-01-25T17:12:34.565Z,0.50
2024-01-25T17:15:01.698Z,0.53
2024-01-25T17:17:29.080Z,0.60
2024-01-25T17:19:56.279Z,0.70
2024-01-25T17:22:23.417Z,0.43
2024-01-25T17:24:50.609Z,0.63
2024-01-25T17:27:17.800Z,0.50
2024-01-25T17:29:44.958Z,0.43
2024-01-25T17:32:12.092Z,0.60
2024-01-25T17:34:39.278Z,0.80
2024-01-25T17:37:06.533Z,0.80
2024-01-25T17:39:33.860Z,0.70
2024-01-25T17:42:01.162Z,0.70
2024-01-25T17:44:28.227Z,0.60
2024-01-25T17:46:55.319Z,0.60
2024-01-25T17:49:22.547Z,0.60
2024-01-25T17:51:49.735Z,0.80
2024-01-25T17:54:16.971Z,0.60
2024-01-25T17:56:44.116Z,0.40
2024-01-25T17:59:11.214Z,0.60
2024-01-25T18:01:38.378Z,0.70
2024-01-25T18:04:05.660Z,0.73
2024-01-25T18:06:32.810Z,0.70
2024-01-25T18:08:59.881Z,0.87
2024-01-25T18:11:26.959Z,0.80
2024-01-25T18:13:54.069Z,1.03
2024-01-25T18:16:21.130Z,1.07
2024-01-25T18:18:48.248Z,1.23
2024-01-25T18:21:15.519Z,1.10
2024-01-25T18:23:42.633Z,0.90
2024-01-25T18:26:09.723Z,1.20
2024-01-25T18:28:36.800Z,1.00
2024-01-25T18:31:04.021Z,1.10
2024-01-25T18:33:31.212Z,1.13
2024-01-25T18:35:58.397Z,1.17
2024-01-25T18:38:25.482Z,0.90
2024-01-25T18:40:52.541Z,0.90
2024-01-25T18:43:19.826Z,1.10
2024-01-25T18:45:49.412Z,1.00
2024-01-25T18:48:16.803Z,0.90
2024-01-25T18:50:44.526Z,0.83
2024-01-25T18:53:11.604Z,1.07
2024-01-25T18:55:38.815Z,0.80
2024-01-25T18:58:06.159Z,0.80
2024-01-25T19:00:33.371Z,0.80
2024-01-25T19:03:00.646Z,1.00
2024-01-25T19:05:27.902Z,0.80
2024-01-25T19:07:55.340Z,0.90
2024-01-25T19:10:22.421Z,0.83
2024-01-25T19:12:49.498Z,0.90
2024-01-25T19:15:18.116Z,0.60
2024-01-25T19:17:45.982Z,0.60
2024-01-25T19:20:13.389Z,0.70
2024-01-25T19:22:40.776Z,0.80
2024-01-25T19:25:08.251Z,0.70
2024-01-25T19:27:35.467Z,0.70
2024-01-25T19:30:02.604Z,0.53
2024-01-25T19:32:29.749Z,0.50
2024-01-25T19:34:57.111Z,0.57
2024-01-25T19:37:24.364Z,0.60
2024-01-25T19:39:51.484Z,0.60
2024-01-25T19:42:18.629Z,0.60
2024-01-25T19:44:45.792Z,0.50
2024-01-25T19:47:12.907Z,0.40
2024-01-25T19:49:40.081Z,0.60
2024-01-25T19:52:07.253Z,0.50
2024-01-25T19:54:34.649Z,0.40
2024-01-25T19:57:01.769Z,0.50
2024-01-25T19:59:29.063Z,0.50
2024-01-25T20:01:56.385Z,0.60
2024-01-25T20:04:23.736Z,0.53
2024-01-25T20:06:51.137Z,0.60
2024-01-25T20:09:18.421Z,0.60
2024-01-25T20:11:45.510Z,0.40
2024-01-25T20:14:12.666Z,0.50
2024-01-25T20:16:39.737Z,0.60
2024-01-25T20:19:07.399Z,0.50
2024-01-25T20:21:34.672Z,0.60
2024-01-25T20:24:02.309Z,0.60
2024-01-25T20:26:29.383Z,0.50
2024-01-25T20:28:56.449Z,0.50
2024-01-25T20:31:23.543Z,0.50
2024-01-25T20:33:51.606Z,0.60
2024-01-25T20:36:18.906Z,0.50
2024-01-25T20:38:46.120Z,0.63
2024-01-25T20:41:13.225Z,0.70
2024-01-25T20:43:40.293Z,0.60
2024-01-25T20:46:08.085Z,0.60
2024-01-25T20:48:36.840Z,0.60
2024-01-25T20:51:04.101Z,0.60
2024-01-25T20:53:31.162Z,0.60
2024-01-25T20:55:58.234Z,0.73
2024-01-25T20:58:25.300Z,0.80
2024-01-25T21:00:52.662Z,0.90
2024-01-25T21:03:19.987Z,0.73
2024-01-25T21:05:47.270Z,0.80
2024-01-25T21:08:15.079Z,0.87
2024-01-25T21:10:42.982Z,0.77
2024-01-25T21:13:10.468Z,0.87
2024-01-25T21:15:37.545Z,1.00
2024-01-25T21:18:05.005Z,0.80
2024-01-25T21:20:32.139Z,0.90
2024-01-25T21:22:59.198Z,0.90
2024-01-25T21:25:26.321Z,0.80
2024-01-25T21:27:53.524Z,0.80
2024-01-25T21:30:20.742Z,1.00
2024-01-25T21:32:47.971Z,0.87
2024-01-25T21:35:15.145Z,1.00
2024-01-25T21:37:42.268Z,0.80
2024-01-25T21:40:09.539Z,0.90
2024-01-25T21:42:38.585Z,0.90
2024-01-25T21:45:07.546Z,0.60
2024-01-25T21:47:35.853Z,0.70
2024-01-25T21:50:05.006Z,0.80
2024-01-25T21:52:32.329Z,0.90
2024-01-25T21:54:59.611Z,0.70
2024-01-25T21:57:27.060Z,0.70
2024-01-25T21:59:54.196Z,0.80
2024-01-25T22:02:21.274Z,0.80
2024-01-25T22:04:48.428Z,0.90
2024-01-25T22:07:15.617Z,0.80
2024-01-25T22:09:44.239Z,0.90
2024-01-25T22:12:11.317Z,0.90
2024-01-25T22:14:38.391Z,0.90
2024-01-25T22:17:06.225Z,1.00
2024-01-25T22:19:33.636Z,1.00
2024-01-25T22:22:00.801Z,1.20
2024-01-25T22:24:28.016Z,1.00
2024-01-25T22:26:55.134Z,1.20
2024-01-25T22:29:22.210Z,1.33
2024-01-25T22:31:49.321Z,1.20
2024-01-25T22:34:16.781Z,1.30
2024-01-25T22:36:44.009Z,1.30
2024-01-25T22:39:11.085Z,1.20
2024-01-25T22:41:38.390Z,1.50
2024-01-25T22:44:05.616Z,1.40
2024-01-25T22:46:32.772Z,1.43
2024-01-25T22:48:59.898Z,1.30
2024-01-25T22:51:27.040Z,1.30
2024-01-25T22:53:54.211Z,1.30
2024-01-25T22:56:21.461Z,1.30
2024-01-25T22:58:48.778Z,1.37
2024-01-25T23:01:17.009Z,1.30
2024-01-25T23:03:45.731Z,1.37
2024-01-25T23:06:13.360Z,1.40
2024-01-25T23:08:40.557Z,1.20
2024-01-25T23:11:08.754Z,1.40
2024-01-25T23:13:36.588Z,1.30
2024-01-25T23:16:04.572Z,1.50
2024-01-25T23:18:31.938Z,1.37
2024-01-25T23:20:59.320Z,1.10
2024-01-25T23:23:26.466Z,1.50
2024-01-25T23:25:53.521Z,1.37
2024-01-25T23:28:20.678Z,1.30
2024-01-25T23:30:47.761Z,1.20
2024-01-25T23:33:16.748Z,1.30
2024-01-25T23:35:44.712Z,1.00
2024-01-25T23:38:11.764Z,1.07
2024-01-25T23:40:38.960Z,1.17
2024-01-25T23:43:06.438Z,1.17
2024-01-25T23:45:33.963Z,1.00
2024-01-25T23:48:01.418Z,0.90
2024-01-25T23:50:28.858Z,0.90
2024-01-25T23:52:56.095Z,0.90
2024-01-25T23:55:23.371Z,0.80
2024-01-25T23:57:50.584Z,0.87
